Ro Fjord — LFEI — position and weather

sailwx.info

Track history (hours):
 
Tides and Currents Weather Stations Pressure Air Temp Water Temp Dewpoint Dewpoint Depression Visibility Wind Speed Wind Dir Waves Ship Positions

Ro Fjord

Last reported at 2017-Feb-23 18:31 UTC. Time now 2017-Feb-23 18:45 UTC.
Position N 62°47' E 006°28'.

Length 72 m; draft 6.4 m.

Type: Ship. MMSI: 257430000.

Date/timePositionNaut miles runAvg speedWind from/ knotsBaromVisibWave heightAir tempDewpointWater temp
2017-Feb-23 18:31N 62°47' E 006°28'0 0.0
2017-Feb-23 17:31N 62°47' E 006°28'0 0.0
2017-Feb-23 16:31N 62°47' E 006°28'0 0.0
2017-Feb-23 15:31N 62°47' E 006°28'0 0.0
2017-Feb-23 14:33N 62°47' E 006°28'7 7.0
2017-Feb-23 13:33N 62°40' E 006°26'1111.2
2017-Feb-23 12:33N 62°32' E 006°09'1010.2
2017-Feb-23 11:33N 62°26' E 005°53'8 8.6
2017-Feb-23 10:33N 62°19' E 005°40'0 0.0
2017-Feb-23 09:33N 62°19' E 005°40'0 0.5
2017-Feb-23 08:33N 62°19' E 005°39'0 0.0
2017-Feb-23 07:33N 62°19' E 005°39'0 0.0
2017-Feb-23 06:33N 62°19' E 005°39'0 0.0
2017-Feb-23 05:33N 62°19' E 005°39'0 0.0
2017-Feb-23 04:33N 62°19' E 005°39'0 0.0
2017-Feb-23 03:33N 62°19' E 005°39'0 0.0
2017-Feb-23 02:33N 62°19' E 005°39'0 0.0
2017-Feb-23 01:32N 62°19' E 005°39'0 0.0
2017-Feb-23 00:33N 62°19' E 005°39'5 4.6
2017-Feb-22 23:33N 62°17' E 005°31'8 7.9
2017-Feb-22 22:34N 62°10' E 005°21'7 7.3
2017-Feb-22 21:33N 62°12' E 005°06'6 6.3
2017-Feb-22 20:32N 62°06' E 005°06'8 8.4
2017-Feb-22 19:34N 61°58' E 005°09'5 5.1
2017-Feb-22 18:33N 61°54' E 005°03'0 0.3
2017-Feb-22 17:33N 61°53' E 005°04'9 9.0
2017-Feb-22 16:33N 62°02' E 005°08'10 9.9
2017-Feb-22 15:33N 62°12' E 005°05'8 8.2
2017-Feb-22 14:33N 62°10' E 005°22'9 9.3
2017-Feb-22 13:33N 62°18' E 005°34'3 3.0
2017-Feb-22 12:33N 62°19' E 005°39'0 0.0
2017-Feb-22 11:33N 62°19' E 005°39'0 0.0
2017-Feb-22 10:32N 62°19' E 005°39'0 0.0
2017-Feb-22 09:33N 62°19' E 005°39'0 0.0
2017-Feb-22 08:33N 62°19' E 005°39'0 0.0
2017-Feb-22 07:33N 62°19' E 005°39'0 0.0
2017-Feb-22 06:33N 62°19' E 005°39'0 0.0
2017-Feb-22 05:33N 62°19' E 005°39'0 0.0
2017-Feb-22 04:33N 62°19' E 005°39'0 0.0
2017-Feb-22 03:33N 62°19' E 005°39'0 0.0
2017-Feb-22 02:32N 62°19' E 005°39'0 0.0
2017-Feb-22 01:33N 62°19' E 005°39'2 1.9
2017-Feb-22 00:33N 62°18' E 005°36'10 9.9
2017-Feb-21 23:34N 62°15' E 005°16'9 9.0
2017-Feb-21 22:33N 62°08' E 005°05'1010.2
2017-Feb-21 21:33N 61°58' E 005°09'5 5.1
2017-Feb-21 20:33N 61°54' E 005°03'0 0.1
2017-Feb-21 19:33N 61°54' E 005°03'0 0.0
2017-Feb-21 18:33N 61°54' E 005°04'1 1.2
2017-Feb-21 17:33N 61°53' E 005°06'9 8.6
2017-Feb-21 16:33N 62°02' E 005°08'10 9.9
2017-Feb-21 15:33N 62°12' E 005°05'9 9.1
2017-Feb-21 14:33N 62°17' E 005°22'9 8.6
2017-Feb-21 13:32N 62°19' E 005°39'0 0.0
2017-Feb-21 12:33N 62°19' E 005°39'0 0.0
2017-Feb-21 11:33N 62°19' E 005°39'0 0.0
2017-Feb-21 10:33N 62°19' E 005°39'0 0.0
2017-Feb-21 09:33N 62°19' E 005°39'0 0.0
2017-Feb-21 08:33N 62°19' E 005°39'0 0.0
2017-Feb-21 07:33N 62°19' E 005°39'0 0.0
2017-Feb-21 06:33N 62°19' E 005°39'0 0.0
2017-Feb-21 05:33N 62°19' E 005°39'0 0.0
2017-Feb-21 04:33N 62°19' E 005°39'0 0.0
2017-Feb-21 03:33N 62°19' E 005°39'0 0.0
2017-Feb-21 02:33N 62°19' E 005°39'7 7.0
2017-Feb-21 01:33N 62°17' E 005°25'10 9.9
2017-Feb-21 00:33N 62°12' E 005°06'9 9.1
2017-Feb-20 23:33N 62°03' E 005°08'9 9.6
2017-Feb-20 22:33N 61°54' E 005°07'2 1.9
2017-Feb-20 21:33N 61°54' E 005°03'0 0.0
2017-Feb-20 20:33N 61°54' E 005°03'0 0.0
2017-Feb-20 19:32N 61°54' E 005°03'3 3.0
2017-Feb-20 18:33N 61°56' E 005°08'8 7.7
2017-Feb-20 17:33N 62°04' E 005°07'9 9.2
2017-Feb-20 16:33N 62°13' E 005°08'9 8.8
2017-Feb-20 15:33N 62°12' E 005°26'4 3.7
2017-Feb-20 14:33N 62°12' E 005°34'0 0.0
2017-Feb-20 13:34N 62°12' E 005°34'0 0.0
2017-Feb-20 12:33N 62°12' E 005°34'0 0.0
2017-Feb-20 11:33N 62°12' E 005°34'0 0.0
2017-Feb-20 10:33N 62°12' E 005°34'0 0.0
2017-Feb-20 09:33N 62°12' E 005°34'0 0.0
2017-Feb-20 08:34N 62°12' E 005°34'0 0.0
2017-Feb-20 07:32N 62°12' E 005°34'0 0.0
2017-Feb-20 06:33N 62°12' E 005°34'0 0.0
2017-Feb-20 05:33N 62°12' E 005°34'0 0.0
2017-Feb-20 04:34N 62°12' E 005°34'0 0.0
2017-Feb-20 03:33N 62°12' E 005°34'0 0.0
2017-Feb-20 02:33N 62°12' E 005°34'0 0.0
2017-Feb-20 01:33N 62°12' E 005°34'5 5.3
2017-Feb-20 00:33N 62°18' E 005°33'4 3.6
2017-Feb-19 23:33N 62°19' E 005°39'0 0.0
2017-Feb-19 22:33N 62°19' E 005°39'0 0.0
2017-Feb-19 21:33N 62°19' E 005°39'2 2.0
2017-Feb-19 20:33N 62°18' E 005°35'1010.1
2017-Feb-19 19:33N 62°15' E 005°15'9 8.7
2017-Feb-19 18:33N 62°08' E 005°05'9 9.3
2017-Feb-19 17:33N 61°59' E 005°09'8 8.0
2017-Feb-19 16:33N 61°51' E 005°16'10 9.7
2017-Feb-19 15:33N 61°45' E 005°00'10 9.4
2017-Feb-19 14:30N 61°35' E 004°57'8 8.8
2017-Feb-19 13:33N 61°27' E 004°55'9 8.9
2017-Feb-19 12:33N 61°18' E 004°52'10 9.8
2017-Feb-19 11:33N 61°10' E 005°04'9 8.6
2017-Feb-19 10:32N 61°06' E 005°20'0 0.4
2017-Feb-19 09:33N 61°07' E 005°21'6 5.5
2017-Feb-19 08:33N 61°08' E 005°09'1111.0
2017-Feb-19 07:33N 61°16' E 004°55'10 9.8
2017-Feb-19 06:33N 61°26' E 004°52'10 9.8
2017-Feb-19 05:34N 61°35' E 004°57'1110.6
2017-Feb-19 04:33N 61°46' E 005°01'9 9.2
2017-Feb-19 03:33N 61°52' E 005°14'9 9.0
2017-Feb-19 02:33N 62°01' E 005°09'1010.3
2017-Feb-19 01:33N 62°11' E 005°05'10 9.9
2017-Feb-19 00:33N 62°17' E 005°22'8 8.4
2017-Feb-18 23:33N 62°19' E 005°39'0 0.0
2017-Feb-18 22:33N 62°19' E 005°39'0 0.4
2017-Feb-18 21:33N 62°19' E 005°40'1010.1
2017-Feb-18 20:33N 62°16' E 005°19'9 9.4
2017-Feb-18 19:33N 62°10' E 005°04'1010.0
2017-Feb-18 18:33N 62°00' E 005°09'8 8.4
2017-Feb-18 17:33N 61°52' E 005°14'8 8.2
2017-Feb-18 16:33N 61°46' E 005°02'10 9.8
2017-Feb-18 15:33N 61°36' E 004°59'4 4.4
2017-Feb-18 14:33N 61°32' E 005°00'9 9.1
2017-Feb-18 13:33N 61°24' E 004°50'9 9.2
2017-Feb-18 12:33N 61°15' E 004°55'10 9.5
2017-Feb-18 11:33N 61°08' E 005°08'6 6.0
2017-Feb-18 10:33N 61°07' E 005°20'0 0.0
2017-Feb-18 09:33N 61°07' E 005°20'0 0.0
2017-Feb-18 08:33N 61°07' E 005°20'0 0.5
2017-Feb-18 07:33N 61°06' E 005°19'7 7.0
2017-Feb-18 06:32N 61°09' E 005°06'10 9.8
2017-Feb-18 05:33N 61°17' E 004°54'9 9.2
2017-Feb-18 04:33N 61°26' E 004°53'9 9.1
2017-Feb-18 03:33N 61°35' E 004°57'2 2.2
2017-Feb-18 02:33N 61°36' E 005°01'0 0.0
2017-Feb-18 01:33N 61°36' E 005°01'0 0.0
2017-Feb-18 00:33N 61°36' E 005°01'0 0.0
2017-Feb-17 23:33N 61°36' E 005°01'0 0.0
2017-Feb-17 22:33N 61°36' E 005°01'0 0.0
2017-Feb-17 21:33N 61°36' E 005°01'0 0.0
2017-Feb-17 20:33N 61°36' E 005°01'0 0.0
2017-Feb-17 19:33N 61°36' E 005°01'4 4.4
2017-Feb-17 18:33N 61°40' E 004°58'1010.2
2017-Feb-17 17:33N 61°49' E 005°10'7 6.9
2017-Feb-17 16:33N 61°56' E 005°07'1010.3
2017-Feb-17 15:33N 62°06' E 005°06'8 8.0
2017-Feb-17 14:32N 62°13' E 005°13'9 8.8
2017-Feb-17 13:33N 62°12' E 005°32'4 3.8
2017-Feb-17 12:33N 62°16' E 005°31'5 5.2
2017-Feb-17 11:33N 62°19' E 005°39'0 0.0
2017-Feb-17 10:33N 62°19' E 005°39'0 0.0
2017-Feb-17 09:33N 62°19' E 005°39'0 0.0
2017-Feb-17 08:33N 62°19' E 005°39'0 0.0
2017-Feb-17 07:33N 62°19' E 005°39'0 0.0
2017-Feb-17 06:33N 62°19' E 005°39'0 0.0
2017-Feb-17 05:32N 62°19' E 005°39'0 0.0
2017-Feb-17 04:33N 62°19' E 005°39'0 0.0
2017-Feb-17 03:33N 62°19' E 005°39'0 0.0
2017-Feb-17 02:33N 62°19' E 005°39'0 0.0
2017-Feb-17 01:33N 62°19' E 005°39'2 1.9
2017-Feb-17 00:33N 62°18' E 005°36'9 9.0
2017-Feb-16 23:33N 62°16' E 005°17'9 8.6
2017-Feb-16 22:33N 62°09' E 005°04'10 9.6
2017-Feb-16 21:33N 62°00' E 005°10'7 7.1
2017-Feb-16 20:33N 61°54' E 005°04'0 0.0
2017-Feb-16 19:33N 61°54' E 005°04'0 0.0
2017-Feb-16 18:32N 61°54' E 005°04'0 0.0
2017-Feb-16 17:32N 61°54' E 005°04'2 2.0
2017-Feb-16 16:33N 61°54' E 005°08'10 9.9
2017-Feb-16 15:33N 62°04' E 005°07'9 8.9
2017-Feb-16 14:33N 62°13' E 005°09'1010.0
2017-Feb-16 13:32N 62°18' E 005°28'6 6.1
2017-Feb-16 12:33N 62°19' E 005°40'1 0.5
2017-Feb-16 11:33N 62°19' E 005°39'0 0.0
2017-Feb-16 10:33N 62°19' E 005°39'0 0.0
2017-Feb-16 09:32N 62°19' E 005°39'0 0.0
2017-Feb-16 08:33N 62°19' E 005°39'0 0.0
2017-Feb-16 07:32N 62°19' E 005°39'0 0.0
2017-Feb-16 06:33N 62°19' E 005°39'0 0.0
2017-Feb-16 05:33N 62°19' E 005°39'0 0.0
2017-Feb-16 04:33N 62°19' E 005°39'0 0.0
2017-Feb-16 03:33N 62°19' E 005°39'0 0.0
2017-Feb-16 02:33N 62°19' E 005°39'0 0.0
2017-Feb-16 01:33N 62°19' E 005°39'3 2.8
2017-Feb-16 00:33N 62°18' E 005°34'10 9.8
2017-Feb-15 23:33N 62°15' E 005°14'9 9.0
2017-Feb-15 22:33N 62°07' E 005°05'10 9.9
2017-Feb-15 21:33N 61°57' E 005°08'4 3.8
2017-Feb-15 20:33N 61°54' E 005°04'0 0.0
2017-Feb-15 19:33N 61°54' E 005°04'0 0.0
2017-Feb-15 18:33N 61°54' E 005°04'1 1.3
2017-Feb-15 17:33N 61°54' E 005°07'3 2.6
2017-Feb-15 16:33N 61°56' E 005°07'0 0.0
2017-Feb-15 15:32N 61°56' E 005°07'0 0.0
2017-Feb-15 14:32N 61°56' E 005°07'0 0.0
2017-Feb-15 13:33N 61°56' E 005°07'0 0.0
2017-Feb-15 12:32N 61°56' E 005°07'0 0.0
2017-Feb-15 11:33N 61°56' E 005°07'1 0.8
2017-Feb-15 10:33N 61°56' E 005°09'0 0.0
2017-Feb-15 09:33N 61°56' E 005°09'2 2.1
2017-Feb-15 08:33N 61°54' E 005°08'1111.0
2017-Feb-15 07:32N 61°55' E 005°32'6 0.5
2017-Feb-14 18:23N 61°53' E 005°45'8 9.5
2017-Feb-14 17:33N 61°55' E 005°29'9 9.3
2017-Feb-14 16:33N 61°54' E 005°09'7 6.6
2017-Feb-14 15:33N 62°00' E 005°09'1110.8
2017-Feb-14 14:32N 62°11' E 005°04'1110.8
2017-Feb-14 13:33N 62°17' E 005°23'8 7.8
2017-Feb-14 12:33N 62°19' E 005°39'0 0.0
2017-Feb-14 11:32N 62°19' E 005°39'0 0.0
2017-Feb-14 10:33N 62°19' E 005°39'0 0.0
2017-Feb-14 09:33N 62°19' E 005°39'0 0.0
2017-Feb-14 08:32N 62°19' E 005°39'0 0.0
2017-Feb-14 07:33N 62°19' E 005°39'0 0.0
2017-Feb-14 06:33N 62°19' E 005°39'0 0.0
2017-Feb-14 05:32N 62°19' E 005°39'0 0.0
2017-Feb-14 04:33N 62°19' E 005°39'0 0.0
2017-Feb-14 03:33N 62°19' E 005°39'0 0.0
2017-Feb-14 02:33N 62°19' E 005°39'0 0.0
2017-Feb-14 01:33N 62°19' E 005°39'0 0.0
2017-Feb-14 00:33N 62°19' E 005°39'3 3.4
2017-Feb-13 23:33N 62°18' E 005°33'9 9.4
2017-Feb-13 22:33N 62°15' E 005°14'9 8.6
2017-Feb-13 21:33N 62°07' E 005°05'10 9.6
2017-Feb-13 20:33N 61°57' E 005°09'5 4.6
2017-Feb-13 19:33N 61°54' E 005°04'0 0.0
2017-Feb-13 18:33N 61°54' E 005°04'  
Track history (hours):
 
Tides and Currents Weather Stations Pressure Air Temp Water Temp Dewpoint Dewpoint Depression Visibility Wind Speed Wind Dir Waves Ship Positions

Ro Fjord

Last reported at 2017-Feb-23 18:31 UTC. Time now 2017-Feb-23 18:45 UTC.
Position N 62°47' E 006°28'.

Length 72 m; draft 6.4 m.

Type: Ship. MMSI: 257430000.

Date/timePositionNaut miles runAvg speedWind from/ knotsBaromVisibWave heightAir tempDewpointWater temp
2017-Feb-23 18:31N 62°47' E 006°28'0 0.0
2017-Feb-23 17:31N 62°47' E 006°28'0 0.0
2017-Feb-23 16:31N 62°47' E 006°28'0 0.0
2017-Feb-23 15:31N 62°47' E 006°28'0 0.0
2017-Feb-23 14:33N 62°47' E 006°28'7 7.0
2017-Feb-23 13:33N 62°40' E 006°26'1111.2
2017-Feb-23 12:33N 62°32' E 006°09'1010.2
2017-Feb-23 11:33N 62°26' E 005°53'8 8.6
2017-Feb-23 10:33N 62°19' E 005°40'0 0.0
2017-Feb-23 09:33N 62°19' E 005°40'0 0.5
2017-Feb-23 08:33N 62°19' E 005°39'0 0.0
2017-Feb-23 07:33N 62°19' E 005°39'0 0.0
2017-Feb-23 06:33N 62°19' E 005°39'0 0.0
2017-Feb-23 05:33N 62°19' E 005°39'0 0.0
2017-Feb-23 04:33N 62°19' E 005°39'0 0.0
2017-Feb-23 03:33N 62°19' E 005°39'0 0.0
2017-Feb-23 02:33N 62°19' E 005°39'0 0.0
2017-Feb-23 01:32N 62°19' E 005°39'0 0.0
2017-Feb-23 00:33N 62°19' E 005°39'5 4.6
2017-Feb-22 23:33N 62°17' E 005°31'8 7.9
2017-Feb-22 22:34N 62°10' E 005°21'7 7.3
2017-Feb-22 21:33N 62°12' E 005°06'6 6.3
2017-Feb-22 20:32N 62°06' E 005°06'8 8.4
2017-Feb-22 19:34N 61°58' E 005°09'5 5.1
2017-Feb-22 18:33N 61°54' E 005°03'0 0.3
2017-Feb-22 17:33N 61°53' E 005°04'9 9.0
2017-Feb-22 16:33N 62°02' E 005°08'10 9.9
2017-Feb-22 15:33N 62°12' E 005°05'8 8.2
2017-Feb-22 14:33N 62°10' E 005°22'9 9.3
2017-Feb-22 13:33N 62°18' E 005°34'3 3.0
2017-Feb-22 12:33N 62°19' E 005°39'0 0.0
2017-Feb-22 11:33N 62°19' E 005°39'0 0.0
2017-Feb-22 10:32N 62°19' E 005°39'0 0.0
2017-Feb-22 09:33N 62°19' E 005°39'0 0.0
2017-Feb-22 08:33N 62°19' E 005°39'0 0.0
2017-Feb-22 07:33N 62°19' E 005°39'0 0.0
2017-Feb-22 06:33N 62°19' E 005°39'0 0.0
2017-Feb-22 05:33N 62°19' E 005°39'0 0.0
2017-Feb-22 04:33N 62°19' E 005°39'0 0.0
2017-Feb-22 03:33N 62°19' E 005°39'0 0.0
2017-Feb-22 02:32N 62°19' E 005°39'0 0.0
2017-Feb-22 01:33N 62°19' E 005°39'2 1.9
2017-Feb-22 00:33N 62°18' E 005°36'10 9.9
2017-Feb-21 23:34N 62°15' E 005°16'9 9.0
2017-Feb-21 22:33N 62°08' E 005°05'1010.2
2017-Feb-21 21:33N 61°58' E 005°09'5 5.1
2017-Feb-21 20:33N 61°54' E 005°03'0 0.1
2017-Feb-21 19:33N 61°54' E 005°03'0 0.0
2017-Feb-21 18:33N 61°54' E 005°04'1 1.2
2017-Feb-21 17:33N 61°53' E 005°06'9 8.6
2017-Feb-21 16:33N 62°02' E 005°08'10 9.9
2017-Feb-21 15:33N 62°12' E 005°05'9 9.1
2017-Feb-21 14:33N 62°17' E 005°22'9 8.6
2017-Feb-21 13:32N 62°19' E 005°39'0 0.0
2017-Feb-21 12:33N 62°19' E 005°39'0 0.0
2017-Feb-21 11:33N 62°19' E 005°39'0 0.0
2017-Feb-21 10:33N 62°19' E 005°39'0 0.0
2017-Feb-21 09:33N 62°19' E 005°39'0 0.0
2017-Feb-21 08:33N 62°19' E 005°39'0 0.0
2017-Feb-21 07:33N 62°19' E 005°39'0 0.0
2017-Feb-21 06:33N 62°19' E 005°39'0 0.0
2017-Feb-21 05:33N 62°19' E 005°39'0 0.0
2017-Feb-21 04:33N 62°19' E 005°39'0 0.0
2017-Feb-21 03:33N 62°19' E 005°39'0 0.0
2017-Feb-21 02:33N 62°19' E 005°39'7 7.0
2017-Feb-21 01:33N 62°17' E 005°25'10 9.9
2017-Feb-21 00:33N 62°12' E 005°06'9 9.1
2017-Feb-20 23:33N 62°03' E 005°08'9 9.6
2017-Feb-20 22:33N 61°54' E 005°07'2 1.9
2017-Feb-20 21:33N 61°54' E 005°03'0 0.0
2017-Feb-20 20:33N 61°54' E 005°03'0 0.0
2017-Feb-20 19:32N 61°54' E 005°03'3 3.0
2017-Feb-20 18:33N 61°56' E 005°08'8 7.7
2017-Feb-20 17:33N 62°04' E 005°07'9 9.2
2017-Feb-20 16:33N 62°13' E 005°08'9 8.8
2017-Feb-20 15:33N 62°12' E 005°26'4 3.7
2017-Feb-20 14:33N 62°12' E 005°34'0 0.0
2017-Feb-20 13:34N 62°12' E 005°34'0 0.0
2017-Feb-20 12:33N 62°12' E 005°34'0 0.0
2017-Feb-20 11:33N 62°12' E 005°34'0 0.0
2017-Feb-20 10:33N 62°12' E 005°34'0 0.0
2017-Feb-20 09:33N 62°12' E 005°34'0 0.0
2017-Feb-20 08:34N 62°12' E 005°34'0 0.0
2017-Feb-20 07:32N 62°12' E 005°34'0 0.0
2017-Feb-20 06:33N 62°12' E 005°34'0 0.0
2017-Feb-20 05:33N 62°12' E 005°34'0 0.0
2017-Feb-20 04:34N 62°12' E 005°34'0 0.0
2017-Feb-20 03:33N 62°12' E 005°34'0 0.0
2017-Feb-20 02:33N 62°12' E 005°34'0 0.0
2017-Feb-20 01:33N 62°12' E 005°34'5 5.3
2017-Feb-20 00:33N 62°18' E 005°33'4 3.6
2017-Feb-19 23:33N 62°19' E 005°39'0 0.0
2017-Feb-19 22:33N 62°19' E 005°39'0 0.0
2017-Feb-19 21:33N 62°19' E 005°39'2 2.0
2017-Feb-19 20:33N 62°18' E 005°35'1010.1
2017-Feb-19 19:33N 62°15' E 005°15'9 8.7
2017-Feb-19 18:33N 62°08' E 005°05'9 9.3
2017-Feb-19 17:33N 61°59' E 005°09'8 8.0
2017-Feb-19 16:33N 61°51' E 005°16'10 9.7
2017-Feb-19 15:33N 61°45' E 005°00'10 9.4
2017-Feb-19 14:30N 61°35' E 004°57'8 8.8
2017-Feb-19 13:33N 61°27' E 004°55'9 8.9
2017-Feb-19 12:33N 61°18' E 004°52'10 9.8
2017-Feb-19 11:33N 61°10' E 005°04'9 8.6
2017-Feb-19 10:32N 61°06' E 005°20'0 0.4
2017-Feb-19 09:33N 61°07' E 005°21'6 5.5
2017-Feb-19 08:33N 61°08' E 005°09'1111.0
2017-Feb-19 07:33N 61°16' E 004°55'10 9.8
2017-Feb-19 06:33N 61°26' E 004°52'10 9.8
2017-Feb-19 05:34N 61°35' E 004°57'1110.6
2017-Feb-19 04:33N 61°46' E 005°01'9 9.2
2017-Feb-19 03:33N 61°52' E 005°14'9 9.0
2017-Feb-19 02:33N 62°01' E 005°09'1010.3
2017-Feb-19 01:33N 62°11' E 005°05'10 9.9
2017-Feb-19 00:33N 62°17' E 005°22'8 8.4
2017-Feb-18 23:33N 62°19' E 005°39'0 0.0
2017-Feb-18 22:33N 62°19' E 005°39'0 0.4
2017-Feb-18 21:33N 62°19' E 005°40'1010.1
2017-Feb-18 20:33N 62°16' E 005°19'9 9.4
2017-Feb-18 19:33N 62°10' E 005°04'1010.0
2017-Feb-18 18:33N 62°00' E 005°09'8 8.4
2017-Feb-18 17:33N 61°52' E 005°14'8 8.2
2017-Feb-18 16:33N 61°46' E 005°02'10 9.8
2017-Feb-18 15:33N 61°36' E 004°59'4 4.4
2017-Feb-18 14:33N 61°32' E 005°00'9 9.1
2017-Feb-18 13:33N 61°24' E 004°50'9 9.2
2017-Feb-18 12:33N 61°15' E 004°55'10 9.5
2017-Feb-18 11:33N 61°08' E 005°08'6 6.0
2017-Feb-18 10:33N 61°07' E 005°20'0 0.0
2017-Feb-18 09:33N 61°07' E 005°20'0 0.0
2017-Feb-18 08:33N 61°07' E 005°20'0 0.5
2017-Feb-18 07:33N 61°06' E 005°19'7 7.0
2017-Feb-18 06:32N 61°09' E 005°06'10 9.8
2017-Feb-18 05:33N 61°17' E 004°54'9 9.2
2017-Feb-18 04:33N 61°26' E 004°53'9 9.1
2017-Feb-18 03:33N 61°35' E 004°57'2 2.2
2017-Feb-18 02:33N 61°36' E 005°01'0 0.0
2017-Feb-18 01:33N 61°36' E 005°01'0 0.0
2017-Feb-18 00:33N 61°36' E 005°01'0 0.0
2017-Feb-17 23:33N 61°36' E 005°01'0 0.0
2017-Feb-17 22:33N 61°36' E 005°01'0 0.0
2017-Feb-17 21:33N 61°36' E 005°01'0 0.0
2017-Feb-17 20:33N 61°36' E 005°01'0 0.0
2017-Feb-17 19:33N 61°36' E 005°01'4 4.4
2017-Feb-17 18:33N 61°40' E 004°58'1010.2
2017-Feb-17 17:33N 61°49' E 005°10'7 6.9
2017-Feb-17 16:33N 61°56' E 005°07'1010.3
2017-Feb-17 15:33N 62°06' E 005°06'8 8.0
2017-Feb-17 14:32N 62°13' E 005°13'9 8.8
2017-Feb-17 13:33N 62°12' E 005°32'4 3.8
2017-Feb-17 12:33N 62°16' E 005°31'5 5.2
2017-Feb-17 11:33N 62°19' E 005°39'0 0.0
2017-Feb-17 10:33N 62°19' E 005°39'0 0.0
2017-Feb-17 09:33N 62°19' E 005°39'0 0.0
2017-Feb-17 08:33N 62°19' E 005°39'0 0.0
2017-Feb-17 07:33N 62°19' E 005°39'0 0.0
2017-Feb-17 06:33N 62°19' E 005°39'0 0.0
2017-Feb-17 05:32N 62°19' E 005°39'0 0.0
2017-Feb-17 04:33N 62°19' E 005°39'0 0.0
2017-Feb-17 03:33N 62°19' E 005°39'0 0.0
2017-Feb-17 02:33N 62°19' E 005°39'0 0.0
2017-Feb-17 01:33N 62°19' E 005°39'2 1.9
2017-Feb-17 00:33N 62°18' E 005°36'9 9.0
2017-Feb-16 23:33N 62°16' E 005°17'9 8.6
2017-Feb-16 22:33N 62°09' E 005°04'10 9.6
2017-Feb-16 21:33N 62°00' E 005°10'7 7.1
2017-Feb-16 20:33N 61°54' E 005°04'0 0.0
2017-Feb-16 19:33N 61°54' E 005°04'0 0.0
2017-Feb-16 18:32N 61°54' E 005°04'0 0.0
2017-Feb-16 17:32N 61°54' E 005°04'2 2.0
2017-Feb-16 16:33N 61°54' E 005°08'10 9.9
2017-Feb-16 15:33N 62°04' E 005°07'9 8.9
2017-Feb-16 14:33N 62°13' E 005°09'1010.0
2017-Feb-16 13:32N 62°18' E 005°28'6 6.1
2017-Feb-16 12:33N 62°19' E 005°40'1 0.5
2017-Feb-16 11:33N 62°19' E 005°39'0 0.0
2017-Feb-16 10:33N 62°19' E 005°39'0 0.0
2017-Feb-16 09:32N 62°19' E 005°39'0 0.0
2017-Feb-16 08:33N 62°19' E 005°39'0 0.0
2017-Feb-16 07:32N 62°19' E 005°39'0 0.0
2017-Feb-16 06:33N 62°19' E 005°39'0 0.0
2017-Feb-16 05:33N 62°19' E 005°39'0 0.0
2017-Feb-16 04:33N 62°19' E 005°39'0 0.0
2017-Feb-16 03:33N 62°19' E 005°39'0 0.0
2017-Feb-16 02:33N 62°19' E 005°39'0 0.0
2017-Feb-16 01:33N 62°19' E 005°39'3 2.8
2017-Feb-16 00:33N 62°18' E 005°34'10 9.8
2017-Feb-15 23:33N 62°15' E 005°14'9 9.0
2017-Feb-15 22:33N 62°07' E 005°05'10 9.9
2017-Feb-15 21:33N 61°57' E 005°08'4 3.8
2017-Feb-15 20:33N 61°54' E 005°04'0 0.0
2017-Feb-15 19:33N 61°54' E 005°04'0 0.0
2017-Feb-15 18:33N 61°54' E 005°04'1 1.3
2017-Feb-15 17:33N 61°54' E 005°07'3 2.6
2017-Feb-15 16:33N 61°56' E 005°07'0 0.0
2017-Feb-15 15:32N 61°56' E 005°07'0 0.0
2017-Feb-15 14:32N 61°56' E 005°07'0 0.0
2017-Feb-15 13:33N 61°56' E 005°07'0 0.0
2017-Feb-15 12:32N 61°56' E 005°07'0 0.0
2017-Feb-15 11:33N 61°56' E 005°07'1 0.8
2017-Feb-15 10:33N 61°56' E 005°09'0 0.0
2017-Feb-15 09:33N 61°56' E 005°09'2 2.1
2017-Feb-15 08:33N 61°54' E 005°08'1111.0
2017-Feb-15 07:32N 61°55' E 005°32'6 0.5
2017-Feb-14 18:23N 61°53' E 005°45'8 9.5
2017-Feb-14 17:33N 61°55' E 005°29'9 9.3
2017-Feb-14 16:33N 61°54' E 005°09'7 6.6
2017-Feb-14 15:33N 62°00' E 005°09'1110.8
2017-Feb-14 14:32N 62°11' E 005°04'1110.8
2017-Feb-14 13:33N 62°17' E 005°23'8 7.8
2017-Feb-14 12:33N 62°19' E 005°39'0 0.0
2017-Feb-14 11:32N 62°19' E 005°39'0 0.0
2017-Feb-14 10:33N 62°19' E 005°39'0 0.0
2017-Feb-14 09:33N 62°19' E 005°39'0 0.0
2017-Feb-14 08:32N 62°19' E 005°39'0 0.0
2017-Feb-14 07:33N 62°19' E 005°39'0 0.0
2017-Feb-14 06:33N 62°19' E 005°39'0 0.0
2017-Feb-14 05:32N 62°19' E 005°39'0 0.0
2017-Feb-14 04:33N 62°19' E 005°39'0 0.0
2017-Feb-14 03:33N 62°19' E 005°39'0 0.0
2017-Feb-14 02:33N 62°19' E 005°39'0 0.0
2017-Feb-14 01:33N 62°19' E 005°39'0 0.0
2017-Feb-14 00:33N 62°19' E 005°39'3 3.4
2017-Feb-13 23:33N 62°18' E 005°33'9 9.4
2017-Feb-13 22:33N 62°15' E 005°14'9 8.6
2017-Feb-13 21:33N 62°07' E 005°05'10 9.6
2017-Feb-13 20:33N 61°57' E 005°09'5 4.6
2017-Feb-13 19:33N 61°54' E 005°04'0 0.0
2017-Feb-13 18:33N 61°54' E 005°04'  

Dump ship's entire track history